SDT weather

Saidu Sharif Airport
Saidu Sharif, North-West Frontier, Pakistan

Public forecast

Using degrees Celsius for public forecast. Weather courtesy of forecast.io.

Closest aviation weather report (METAR) to Saidu Sharif Airport

Closest report is Peshawar International Airport, 64.4 nm (119.3 km) SW. Retrieved 2019/10/23 20:00 UTC (21 minutes ago):

OPPS 232000Z 36004KT 4000 HZ FEW100 FEW200 20/10 Q1012

Closest aviation forecast (TAF) to Saidu Sharif Airport

Closest forecast is Peshawar International Airport, 64.4 nm (119.3 km) SW. Retrieved 2019/10/23 18:12 UTC (2 hours ago):

TAF TAF OPPS 231605Z 2318/2424 05010KT 4000 HZ SCT100 TEMPO 2403/2406 3000 FEW040 SCT100 TEMPO 2409/2412 21010G20KT FEW030TCU SCT040 SCT100